createdAt,value
2019-05-03T00:02:29.323Z,73.00
2019-05-03T00:05:54.197Z,72.90
2019-05-03T00:08:58.725Z,72.30
2019-05-03T00:12:03.245Z,72.20
2019-05-03T00:15:24.081Z,72.40
2019-05-03T00:18:48.216Z,72.90
2019-05-03T00:21:52.757Z,73.60
2019-05-03T00:25:05.958Z,73.30
2019-05-03T00:28:04.201Z,73.30
2019-05-03T00:31:08.988Z,73.00
2019-05-03T00:34:17.033Z,72.90
2019-05-03T00:37:23.366Z,72.80
2019-05-03T00:40:32.426Z,73.70
2019-05-03T00:43:37.085Z,73.20
2019-05-03T00:46:42.164Z,72.80
2019-05-03T00:49:46.957Z,72.10
2019-05-03T00:52:57.245Z,72.90
2019-05-03T00:56:01.851Z,73.30
2019-05-03T00:59:07.267Z,72.70
2019-05-03T01:02:11.948Z,73.00
2019-05-03T01:05:16.684Z,73.30
2019-05-03T01:08:22.041Z,72.70
2019-05-03T01:11:27.251Z,73.10
2019-05-03T01:14:32.191Z,74.10
2019-05-03T01:17:36.862Z,74.30
2019-05-03T01:20:42.666Z,74.20
2019-05-03T01:23:47.403Z,74.10
2019-05-03T01:26:52.577Z,74.30
2019-05-03T01:29:57.888Z,74.40
2019-05-03T01:33:02.957Z,74.50
2019-05-03T01:36:07.683Z,74.70
2019-05-03T01:39:12.759Z,75.50
2019-05-03T01:42:18.152Z,76.00
2019-05-03T01:45:22.846Z,76.20
2019-05-03T01:48:52.432Z,75.60
2019-05-03T01:52:07.107Z,75.30
2019-05-03T01:55:15.734Z,75.00
2019-05-03T01:58:18.307Z,75.70
2019-05-03T02:01:42.816Z,75.70
2019-05-03T02:04:53.245Z,76.30
2019-05-03T02:07:59.082Z,76.30
2019-05-03T02:11:03.612Z,75.70
2019-05-03T02:14:09.072Z,75.00
2019-05-03T02:17:13.654Z,74.20
2019-05-03T02:20:18.347Z,73.90
2019-05-03T02:23:22.830Z,74.00
2019-05-03T02:26:27.442Z,74.10
2019-05-03T02:29:32.603Z,74.10
2019-05-03T02:32:37.498Z,74.70
2019-05-03T02:35:43.030Z,75.40
2019-05-03T02:38:48.899Z,75.40
2019-05-03T02:41:59.765Z,74.60
2019-05-03T02:45:00.093Z,74.20
2019-05-03T02:48:11.272Z,74.20
2019-05-03T02:51:15.921Z,74.30
2019-05-03T02:54:20.661Z,73.80
2019-05-03T02:57:25.831Z,74.20
2019-05-03T03:00:57.779Z,76.00
2019-05-03T03:04:05.129Z,76.50
2019-05-03T03:07:09.416Z,76.70
2019-05-03T03:10:16.152Z,77.30
2019-05-03T03:13:22.528Z,77.70
2019-05-03T03:16:28.674Z,77.60
2019-05-03T03:19:35.383Z,76.90
2019-05-03T03:22:45.604Z,77.20
2019-05-03T03:25:56.055Z,77.60
2019-05-03T03:29:06.321Z,78.10
2019-05-03T03:32:28.256Z,78.70
2019-05-03T03:35:37.626Z,78.40
2019-05-03T03:38:39.615Z,78.60
2019-05-03T03:41:45.875Z,79.00
2019-05-03T03:44:51.684Z,79.20
2019-05-03T03:47:57.403Z,79.10
2019-05-03T03:51:05.169Z,78.60
2019-05-03T03:54:15.467Z,78.90
2019-05-03T03:57:21.137Z,78.60
2019-05-03T04:00:26.025Z,78.50
2019-05-03T04:03:30.715Z,78.00
2019-05-03T04:06:41.530Z,77.50
2019-05-03T04:09:46.088Z,77.60
2019-05-03T04:12:50.771Z,77.30
2019-05-03T04:16:20.951Z,76.80
2019-05-03T04:19:28.009Z,76.30
2019-05-03T04:22:32.795Z,76.70
2019-05-03T04:25:38.606Z,77.10
2019-05-03T04:28:45.322Z,77.20
2019-05-03T04:31:50.270Z,77.10
2019-05-03T04:34:56.121Z,78.00
2019-05-03T04:38:05.875Z,78.40
2019-05-03T04:41:10.523Z,78.70
2019-05-03T04:44:15.658Z,78.00
2019-05-03T04:47:20.343Z,78.00
2019-05-03T04:50:25.641Z,78.10
2019-05-03T04:53:35.744Z,78.90
2019-05-03T04:57:06.933Z,79.00
2019-05-03T05:00:25.613Z,79.30
2019-05-03T05:03:26.612Z,79.40
2019-05-03T05:06:35.071Z,79.50
2019-05-03T05:09:56.559Z,79.60
2019-05-03T05:13:01.123Z,79.60
2019-05-03T05:16:06.026Z,79.70
2019-05-03T05:19:15.193Z,79.60
2019-05-03T05:22:24.584Z,79.10
2019-05-03T05:25:31.559Z,79.20
2019-05-03T05:28:44.605Z,79.20
2019-05-03T05:31:48.522Z,78.90
2019-05-03T05:34:54.842Z,79.00
2019-05-03T05:38:01.945Z,78.80
2019-05-03T05:41:06.431Z,79.40
2019-05-03T05:44:10.911Z,78.90
2019-05-03T05:47:49.496Z,78.60
2019-05-03T05:50:56.033Z,78.30
2019-05-03T05:54:00.539Z,78.00
2019-05-03T05:57:40.208Z,77.90
2019-05-03T06:00:55.176Z,77.80
2019-05-03T06:03:59.779Z,77.60
2019-05-03T06:07:15.875Z,77.30
2019-05-03T06:10:32.078Z,77.70
2019-05-03T06:13:40.738Z,77.80
2019-05-03T06:16:56.474Z,77.10
2019-05-03T06:20:20.917Z,77.50
2019-05-03T06:23:29.590Z,77.20
2019-05-03T06:26:56.566Z,77.50
2019-05-03T06:30:07.559Z,77.90
2019-05-03T06:33:14.293Z,77.70
2019-05-03T06:36:18.435Z,78.10
2019-05-03T06:39:24.953Z,77.50
2019-05-03T06:42:29.420Z,77.20
2019-05-03T06:45:35.326Z,78.70
2019-05-03T06:48:40.203Z,77.30
2019-05-03T06:51:49.506Z,77.00
2019-05-03T06:54:51.137Z,77.50
2019-05-03T06:57:55.763Z,77.70
2019-05-03T07:01:15.152Z,77.40
2019-05-03T07:04:24.622Z,77.50
2019-05-03T07:07:57.174Z,76.50
2019-05-03T07:11:02.332Z,76.50
2019-05-03T07:14:07.197Z,76.00
2019-05-03T07:17:12.011Z,76.80
2019-05-03T07:20:16.492Z,76.20
2019-05-03T07:23:21.514Z,76.20
2019-05-03T07:26:25.977Z,76.80
2019-05-03T07:29:30.554Z,76.60
2019-05-03T07:32:35.531Z,75.80
2019-05-03T07:35:41.518Z,75.60
2019-05-03T07:38:46.108Z,76.10
2019-05-03T07:41:51.143Z,75.40
2019-05-03T07:44:55.981Z,75.70
2019-05-03T07:48:02.273Z,75.90
2019-05-03T07:51:07.682Z,75.00
2019-05-03T07:54:12.242Z,75.10
2019-05-03T07:57:35.501Z,74.30
2019-05-03T08:00:39.006Z,74.50
2019-05-03T08:03:45.095Z,74.60
2019-05-03T08:06:49.632Z,74.00
2019-05-03T08:09:55.576Z,73.30
2019-05-03T08:13:00.299Z,73.30
2019-05-03T08:16:05.941Z,72.30
2019-05-03T08:19:29.866Z,71.50
2019-05-03T08:22:34.566Z,71.60
2019-05-03T08:25:39.303Z,70.90
2019-05-03T08:28:44.442Z,72.80
2019-05-03T08:31:59.398Z,72.30
2019-05-03T08:35:20.174Z,70.30
2019-05-03T08:38:25.784Z,71.40
2019-05-03T08:41:32.254Z,71.20
2019-05-03T08:44:36.754Z,70.00
2019-05-03T08:47:41.198Z,70.20
2019-05-03T08:50:46.307Z,69.70
2019-05-03T08:53:51.185Z,68.30
2019-05-03T08:56:55.957Z,67.90
2019-05-03T09:00:00.439Z,66.70
2019-05-03T09:03:05.373Z,65.80
2019-05-03T09:06:10.156Z,67.60
2019-05-03T09:09:30.044Z,67.30
2019-05-03T09:12:52.148Z,66.70
2019-05-03T09:15:56.772Z,66.10
2019-05-03T09:19:01.606Z,65.40
2019-05-03T09:22:06.668Z,64.50
2019-05-03T09:25:11.155Z,65.40
2019-05-03T09:28:17.076Z,65.60
2019-05-03T09:31:21.602Z,65.70
2019-05-03T09:34:26.451Z,64.50
2019-05-03T09:37:30.913Z,63.40
2019-05-03T09:40:35.987Z,63.10
2019-05-03T09:43:40.515Z,64.20
2019-05-03T09:46:45.192Z,63.60
2019-05-03T09:49:49.682Z,60.70
2019-05-03T09:52:55.537Z,62.00
2019-05-03T09:56:04.913Z,62.30
2019-05-03T09:59:09.091Z,60.50
2019-05-03T10:02:15.150Z,60.80
2019-05-03T10:05:20.017Z,60.00
2019-05-03T10:08:25.469Z,60.70
2019-05-03T10:11:30.244Z,61.30
2019-05-03T10:14:34.845Z,59.60
2019-05-03T10:17:48.755Z,60.00
2019-05-03T10:20:56.219Z,61.20
2019-05-03T10:24:00.663Z,60.50
2019-05-03T10:27:05.698Z,60.90
2019-05-03T10:30:13.411Z,59.40
2019-05-03T10:33:22.734Z,59.60
2019-05-03T10:36:27.452Z,60.00
2019-05-03T10:40:15.812Z,59.10
2019-05-03T10:43:18.079Z,59.80
2019-05-03T10:46:22.664Z,59.60
2019-05-03T10:49:47.117Z,59.60
2019-05-03T10:53:18.657Z,59.40
2019-05-03T10:56:42.116Z,59.40
2019-05-03T10:59:49.738Z,59.20
2019-05-03T11:02:59.643Z,60.10
2019-05-03T11:06:25.899Z,57.80
2019-05-03T11:10:02.863Z,58.10
2019-05-03T11:13:51.085Z,58.20
2019-05-03T11:16:56.601Z,58.40
2019-05-03T11:20:01.123Z,57.90
2019-05-03T11:23:07.296Z,57.90
2019-05-03T11:26:13.827Z,58.90
2019-05-03T11:29:18.033Z,57.50
2019-05-03T11:32:55.605Z,58.00
2019-05-03T11:36:31.823Z,58.80
2019-05-03T11:39:37.311Z,58.50
2019-05-03T11:42:41.835Z,57.60
2019-05-03T11:45:46.403Z,57.70
2019-05-03T11:48:51.540Z,57.80
2019-05-03T11:51:57.130Z,58.20
2019-05-03T11:55:01.711Z,58.90
2019-05-03T11:58:18.795Z,58.70
2019-05-03T12:01:30.528Z,57.90
2019-05-03T12:04:35.456Z,58.20
2019-05-03T12:07:40.888Z,59.80
2019-05-03T12:10:55.360Z,58.40
2019-05-03T12:14:10.603Z,58.40
2019-05-03T12:17:23.896Z,57.90
2019-05-03T12:20:23.941Z,59.30
2019-05-03T12:23:31.617Z,58.20
2019-05-03T12:26:43.978Z,59.00
2019-05-03T12:29:44.585Z,59.10
2019-05-03T12:32:50.163Z,58.50
2019-05-03T12:35:55.578Z,58.80
2019-05-03T12:39:00.187Z,59.50
2019-05-03T12:42:05.933Z,57.80
2019-05-03T12:45:11.932Z,58.50
2019-05-03T12:48:16.529Z,57.80
2019-05-03T12:51:21.162Z,57.70
2019-05-03T12:54:26.157Z,58.10
2019-05-03T12:57:32.022Z,58.90
2019-05-03T13:00:48.670Z,57.80
2019-05-03T13:04:01.778Z,58.00
2019-05-03T13:07:19.303Z,57.60
2019-05-03T13:10:26.481Z,58.00
2019-05-03T13:13:35.540Z,57.80
2019-05-03T13:16:44.489Z,56.10
2019-05-03T13:19:48.835Z,57.50
2019-05-03T13:22:55.811Z,55.80
2019-05-03T13:26:00.153Z,56.30
2019-05-03T13:29:05.857Z,55.80
2019-05-03T13:32:10.545Z,56.20
2019-05-03T13:35:15.488Z,56.30
2019-05-03T13:38:20.393Z,55.90
2019-05-03T13:41:26.019Z,56.70
2019-05-03T13:44:30.619Z,56.30
2019-05-03T13:47:36.515Z,56.20
2019-05-03T13:50:41.945Z,56.50
2019-05-03T13:53:46.620Z,57.20
2019-05-03T13:56:55.250Z,57.60
2019-05-03T13:59:59.964Z,57.40
2019-05-03T14:03:04.700Z,56.70
2019-05-03T14:06:09.649Z,56.10
2019-05-03T14:09:14.299Z,55.30
2019-05-03T14:12:18.839Z,56.00
2019-05-03T14:15:25.548Z,56.40
2019-05-03T14:18:30.451Z,56.30
2019-05-03T14:21:43.815Z,56.00
2019-05-03T14:24:48.435Z,56.60
2019-05-03T14:27:54.822Z,56.20
2019-05-03T14:30:59.167Z,56.30
2019-05-03T14:34:05.798Z,56.20
2019-05-03T14:37:10.297Z,56.40
2019-05-03T14:40:17.947Z,56.20
2019-05-03T14:43:24.703Z,55.90
2019-05-03T14:46:33.080Z,56.10
2019-05-03T14:49:35.976Z,56.30
2019-05-03T14:52:40.528Z,56.40
2019-05-03T14:55:58.920Z,56.50
2019-05-03T14:59:37.422Z,57.20
2019-05-03T15:02:52.392Z,58.00
2019-05-03T15:05:58.446Z,57.00
2019-05-03T15:09:05.326Z,56.20
2019-05-03T15:12:09.457Z,56.30
2019-05-03T15:15:14.761Z,57.30
2019-05-03T15:18:19.962Z,56.60
2019-05-03T15:24:34.666Z,55.80
2019-05-03T15:27:39.738Z,57.20
2019-05-03T15:30:46.569Z,57.80
2019-05-03T15:33:51.109Z,57.80
2019-05-03T15:36:57.368Z,58.20
2019-05-03T15:40:06.066Z,57.70
2019-05-03T15:43:28.893Z,58.40
2019-05-03T15:46:48.896Z,58.80
2019-05-03T15:49:55.423Z,59.20
2019-05-03T15:53:04.398Z,58.80
2019-05-03T15:56:11.860Z,58.30
2019-05-03T15:59:17.104Z,58.40
2019-05-03T16:02:22.332Z,58.30
2019-05-03T16:05:26.742Z,58.70
2019-05-03T16:08:33.078Z,59.10
2019-05-03T16:11:37.605Z,58.20
2019-05-03T16:14:42.135Z,58.90
2019-05-03T16:17:46.692Z,58.20
2019-05-03T16:20:51.415Z,58.30
2019-05-03T16:23:55.891Z,57.20
2019-05-03T16:27:34.502Z,57.70
2019-05-03T16:30:48.052Z,58.30
2019-05-03T16:33:52.539Z,58.40
2019-05-03T16:36:57.003Z,58.20
2019-05-03T16:40:02.056Z,58.50
2019-05-03T16:43:06.547Z,59.30
2019-05-03T16:46:11.482Z,59.10
2019-05-03T16:49:16.475Z,59.10
2019-05-03T16:52:40.682Z,59.40
2019-05-03T16:55:45.899Z,59.10
2019-05-03T16:58:50.422Z,58.90
2019-05-03T17:01:55.228Z,58.80
2019-05-03T17:05:10.265Z,58.60
2019-05-03T17:08:30.668Z,59.00
2019-05-03T17:11:35.934Z,58.90
2019-05-03T17:14:40.904Z,59.10
2019-05-03T17:17:45.659Z,59.30
2019-05-03T17:20:51.598Z,59.40
2019-05-03T17:23:56.367Z,59.60
2019-05-03T17:27:00.843Z,59.90
2019-05-03T17:30:08.605Z,58.80
2019-05-03T17:33:16.156Z,59.00
2019-05-03T17:36:25.044Z,59.40
2019-05-03T17:39:54.715Z,60.00
2019-05-03T17:43:11.917Z,59.50
2019-05-03T17:46:16.940Z,60.00
2019-05-03T17:49:23.140Z,60.00
2019-05-03T17:52:46.751Z,59.60
2019-05-03T17:56:10.214Z,59.80
2019-05-03T17:59:28.876Z,59.60
2019-05-03T18:02:46.120Z,60.00
2019-05-03T18:06:00.081Z,60.00
2019-05-03T18:09:23.530Z,59.70
2019-05-03T18:12:27.992Z,59.80
2019-05-03T18:15:34.603Z,60.00
2019-05-03T18:18:40.595Z,60.70
2019-05-03T18:21:45.106Z,60.80
2019-05-03T18:24:49.680Z,60.20
2019-05-03T18:27:55.200Z,61.00
2019-05-03T18:31:00.034Z,61.70
2019-05-03T18:34:05.169Z,62.70
2019-05-03T18:37:11.282Z,61.90
2019-05-03T18:40:15.999Z,61.70
2019-05-03T18:43:39.081Z,61.90
2019-05-03T18:46:55.902Z,63.20
2019-05-03T18:50:01.357Z,62.00
2019-05-03T18:53:05.837Z,61.50
2019-05-03T18:56:10.826Z,61.50
2019-05-03T18:59:18.391Z,61.60
2019-05-03T19:02:24.253Z,61.40
2019-05-03T19:05:30.307Z,61.20
2019-05-03T19:08:54.318Z,62.00
2019-05-03T19:12:20.927Z,61.50
2019-05-03T19:15:27.055Z,63.00
2019-05-03T19:18:38.974Z,63.00
2019-05-03T19:21:44.464Z,62.80
2019-05-03T19:24:49.161Z,63.10
2019-05-03T19:27:54.615Z,63.10
2019-05-03T19:31:05.365Z,63.10
2019-05-03T19:34:11.581Z,62.70
2019-05-03T19:37:16.134Z,63.10
2019-05-03T19:40:22.062Z,64.10
2019-05-03T19:43:35.533Z,63.10
2019-05-03T19:46:49.223Z,63.60
2019-05-03T19:49:54.500Z,64.50
2019-05-03T19:53:21.149Z,63.70
2019-05-03T19:56:29.078Z,63.90
2019-05-03T19:59:51.753Z,63.80
2019-05-03T20:03:00.415Z,64.00
2019-05-03T20:06:30.265Z,64.00
2019-05-03T20:09:49.349Z,63.40
2019-05-03T20:12:55.152Z,63.20
2019-05-03T20:16:01.162Z,63.80
2019-05-03T20:19:17.899Z,64.20
2019-05-03T20:22:15.027Z,63.60
2019-05-03T20:25:19.089Z,63.90
2019-05-03T20:28:44.925Z,63.60
2019-05-03T20:31:49.648Z,63.80
2019-05-03T20:34:55.127Z,64.90
2019-05-03T20:37:59.890Z,64.50
2019-05-03T20:41:05.225Z,64.50
2019-05-03T20:44:25.911Z,64.80
2019-05-03T20:47:38.190Z,64.90
2019-05-03T20:50:44.597Z,64.80
2019-05-03T20:53:49.017Z,64.90
2019-05-03T20:56:54.668Z,64.80
2019-05-03T20:59:59.246Z,64.20
2019-05-03T21:03:04.923Z,64.60
2019-05-03T21:06:09.558Z,65.00
2019-05-03T21:09:15.030Z,64.60
2019-05-03T21:12:19.687Z,64.90
2019-05-03T21:15:39.852Z,64.70
2019-05-03T21:18:50.355Z,66.00
2019-05-03T21:22:02.300Z,66.30
2019-05-03T21:25:15.698Z,66.30
2019-05-03T21:28:20.366Z,66.20
2019-05-03T21:31:24.891Z,66.40
2019-05-03T21:34:29.418Z,66.80
2019-05-03T21:37:34.885Z,67.10
2019-05-03T21:40:58.565Z,66.40
2019-05-03T21:44:04.839Z,66.70
2019-05-03T21:47:35.109Z,66.80
2019-05-03T21:50:39.802Z,67.60
2019-05-03T21:53:45.045Z,67.20
2019-05-03T21:56:49.805Z,67.90
2019-05-03T21:59:55.021Z,68.50
2019-05-03T22:02:59.675Z,68.20
2019-05-03T22:06:04.398Z,68.60
2019-05-03T22:09:10.123Z,69.30
2019-05-03T22:12:15.437Z,70.60
2019-05-03T22:15:31.121Z,70.50
2019-05-03T22:18:36.025Z,70.60
2019-05-03T22:21:55.157Z,70.20
2019-05-03T22:25:00.151Z,68.80
2019-05-03T22:28:07.178Z,69.70
2019-05-03T22:31:11.900Z,70.40
2019-05-03T22:34:16.567Z,71.50
2019-05-03T22:37:21.053Z,71.70
2019-05-03T22:40:46.760Z,71.20
2019-05-03T22:43:50.992Z,74.10
2019-05-03T22:46:55.999Z,73.80
2019-05-03T22:50:00.530Z,72.90
2019-05-03T22:53:05.958Z,74.20
2019-05-03T22:56:10.789Z,73.70
2019-05-03T22:59:16.151Z,75.00
2019-05-03T23:02:20.694Z,77.10
2019-05-03T23:05:25.749Z,75.70
2019-05-03T23:08:30.332Z,75.30
2019-05-03T23:11:35.834Z,76.00
2019-05-03T23:14:40.439Z,77.50
2019-05-03T23:17:45.249Z,75.70
2019-05-03T23:20:57.228Z,77.00
2019-05-03T23:24:01.811Z,78.60
2019-05-03T23:27:06.438Z,78.20
2019-05-03T23:30:11.134Z,75.70
2019-05-03T23:33:15.737Z,78.50
2019-05-03T23:36:32.524Z,76.70
2019-05-03T23:39:26.657Z,78.30
2019-05-03T23:42:31.631Z,78.00
2019-05-03T23:45:36.102Z,79.10
2019-05-03T23:48:40.697Z,79.00
2019-05-03T23:51:50.271Z,80.10
2019-05-03T23:54:55.394Z,78.70
2019-05-03T23:57:59.899Z,80.00
